createdAt,value
2022-09-18T00:01:33.471Z,2.97
2022-09-18T00:04:04.274Z,2.83
2022-09-18T00:06:38.441Z,2.83
2022-09-18T00:09:09.884Z,1.50
2022-09-18T00:11:40.698Z,1.50
2022-09-18T00:14:09.980Z,1.52
2022-09-18T00:16:38.816Z,3.10
2022-09-18T00:19:06.598Z,2.40
2022-09-18T00:21:35.997Z,2.33
2022-09-18T00:24:05.040Z,2.00
2022-09-18T00:26:33.571Z,2.30
2022-09-18T00:29:01.367Z,2.50
2022-09-18T00:31:31.315Z,1.30
2022-09-18T00:34:00.766Z,1.73
2022-09-18T00:36:30.024Z,2.08
2022-09-18T00:38:59.544Z,1.48
2022-09-18T00:41:31.422Z,1.67
2022-09-18T00:46:46.278Z,1.80
2022-09-18T00:49:20.827Z,1.30
2022-09-18T00:51:53.027Z,1.77
2022-09-18T00:54:20.449Z,2.70
2022-09-18T00:56:50.998Z,1.73
2022-09-18T00:59:31.312Z,2.38
2022-09-18T01:02:00.917Z,1.00
2022-09-18T01:04:29.565Z,2.20
2022-09-18T01:07:29.507Z,1.80
2022-09-18T01:10:17.898Z,2.30
2022-09-18T01:13:00.469Z,1.08
2022-09-18T01:15:35.170Z,1.88
2022-09-18T01:18:31.598Z,1.50
2022-09-18T01:21:16.701Z,2.03
2022-09-18T01:24:04.371Z,1.40
2022-09-18T01:26:50.837Z,1.85
2022-09-18T01:29:34.047Z,2.58
2022-09-18T01:32:21.256Z,2.40
2022-09-18T01:34:55.007Z,0.70
2022-09-18T01:37:43.961Z,2.28
2022-09-18T01:40:34.929Z,1.90
2022-09-18T01:43:06.629Z,2.65
2022-09-18T01:45:37.878Z,1.70
2022-09-18T01:48:08.672Z,1.23
2022-09-18T01:50:45.679Z,1.55
2022-09-18T01:53:45.510Z,1.63
2022-09-18T01:56:48.165Z,2.35
2022-09-18T01:59:32.488Z,1.50
2022-09-18T02:02:15.822Z,1.17
2022-09-18T02:04:45.605Z,1.35
2022-09-18T02:07:27.766Z,1.67
2022-09-18T02:09:55.498Z,1.63
2022-09-18T02:12:26.955Z,1.20
2022-09-18T02:15:04.325Z,1.52
2022-09-18T02:18:00.937Z,2.15
2022-09-18T02:20:38.258Z,1.38
2022-09-18T02:23:08.116Z,2.13
2022-09-18T02:25:45.929Z,1.63
2022-09-18T02:28:18.237Z,2.80
2022-09-18T02:30:46.131Z,2.25
2022-09-18T02:33:31.307Z,1.83
2022-09-18T02:36:15.292Z,1.85
2022-09-18T02:38:51.934Z,1.42
2022-09-18T02:41:41.870Z,3.33
2022-09-18T02:44:33.161Z,1.08
2022-09-18T02:50:03.087Z,1.33
2022-09-18T02:52:45.953Z,2.15
2022-09-18T02:58:13.013Z,1.70
2022-09-18T03:00:44.258Z,2.22
2022-09-18T03:03:19.918Z,0.70
2022-09-18T03:05:54.081Z,1.63
2022-09-18T03:08:22.255Z,2.60
2022-09-18T03:10:49.753Z,1.60
2022-09-18T03:13:17.289Z,1.33
2022-09-18T03:15:45.024Z,2.53
2022-09-18T03:18:12.512Z,2.58
2022-09-18T03:20:42.702Z,2.50
2022-09-18T03:23:10.948Z,0.85
2022-09-18T03:25:38.576Z,1.08
2022-09-18T03:28:06.766Z,1.75
2022-09-18T03:30:40.435Z,1.00
2022-09-18T03:33:08.645Z,2.90
2022-09-18T03:35:36.236Z,2.05
2022-09-18T03:38:03.713Z,2.38
2022-09-18T03:40:32.027Z,1.95
2022-09-18T03:43:03.916Z,2.67
2022-09-18T03:45:31.948Z,2.45
2022-09-18T03:48:00.357Z,2.05
2022-09-18T03:50:28.162Z,1.73
2022-09-18T03:52:56.249Z,1.10
2022-09-18T03:55:38.051Z,1.55
2022-09-18T03:58:24.319Z,1.38
2022-09-18T04:01:07.338Z,2.05
2022-09-18T04:03:53.448Z,1.42
2022-09-18T04:06:43.996Z,1.30
2022-09-18T04:09:31.333Z,1.08
2022-09-18T04:12:00.272Z,0.80
2022-09-18T04:14:30.131Z,1.65
2022-09-18T04:16:59.241Z,2.58
2022-09-18T04:19:26.625Z,1.25
2022-09-18T04:21:54.264Z,1.25
2022-09-18T04:24:22.482Z,2.38
2022-09-18T04:26:50.251Z,1.83
2022-09-18T04:29:20.694Z,1.15
2022-09-18T04:31:50.736Z,1.10
2022-09-18T04:34:20.344Z,3.70
2022-09-18T04:36:48.341Z,2.50
2022-09-18T04:39:15.825Z,0.93
2022-09-18T04:41:45.753Z,1.42
2022-09-18T04:44:14.731Z,1.10
2022-09-18T04:46:43.712Z,1.00
2022-09-18T04:49:11.622Z,1.58
2022-09-18T04:51:39.267Z,1.33
2022-09-18T04:54:06.767Z,2.15
2022-09-18T04:56:37.710Z,1.17
2022-09-18T04:59:05.124Z,1.45
2022-09-18T05:01:34.876Z,1.48
2022-09-18T05:04:08.744Z,1.13
2022-09-18T05:06:53.571Z,1.80
2022-09-18T05:09:21.032Z,0.63
2022-09-18T05:11:49.134Z,1.42
2022-09-18T05:14:17.833Z,1.75
2022-09-18T05:16:48.417Z,1.52
2022-09-18T05:19:41.771Z,1.58
2022-09-18T05:22:19.104Z,1.13
2022-09-18T05:24:49.197Z,2.55
2022-09-18T05:27:16.676Z,1.67
2022-09-18T05:29:44.518Z,0.82
2022-09-18T05:32:20.365Z,1.27
2022-09-18T05:34:50.182Z,1.27
2022-09-18T05:37:19.091Z,1.40
2022-09-18T05:39:50.933Z,1.90
2022-09-18T05:42:18.334Z,1.20
2022-09-18T05:44:45.769Z,1.70
2022-09-18T05:47:18.349Z,1.30
2022-09-18T05:49:45.866Z,1.50
2022-09-18T05:52:13.528Z,1.38
2022-09-18T05:54:41.674Z,1.65
2022-09-18T05:57:10.227Z,1.70
2022-09-18T05:59:37.641Z,1.08
2022-09-18T06:02:06.257Z,1.67
2022-09-18T06:05:03.424Z,1.33
2022-09-18T06:07:31.803Z,2.45
2022-09-18T06:10:00.158Z,2.00
2022-09-18T06:12:27.899Z,1.98
2022-09-18T06:14:55.364Z,1.60
2022-09-18T06:17:25.153Z,1.02
2022-09-18T06:19:55.568Z,1.73
2022-09-18T06:22:24.848Z,1.52
2022-09-18T06:24:52.520Z,2.03
2022-09-18T06:27:27.847Z,2.40
2022-09-18T06:29:55.325Z,2.25
2022-09-18T06:32:30.397Z,1.50
2022-09-18T06:34:57.980Z,1.52
2022-09-18T06:37:26.861Z,1.35
2022-09-18T06:40:10.505Z,1.48
2022-09-18T06:43:01.835Z,2.42
2022-09-18T06:45:51.956Z,1.02
2022-09-18T06:48:23.391Z,1.63
2022-09-18T06:50:56.962Z,2.05
2022-09-18T06:53:26.700Z,1.35
2022-09-18T06:56:00.490Z,1.80
2022-09-18T06:58:27.897Z,1.88
2022-09-18T07:01:00.403Z,1.73
2022-09-18T07:03:34.132Z,1.27
2022-09-18T07:06:25.169Z,0.82
2022-09-18T07:08:53.248Z,2.00
2022-09-18T07:11:33.732Z,1.60
2022-09-18T07:14:01.660Z,1.33
2022-09-18T07:16:29.239Z,1.10
2022-09-18T07:18:56.992Z,1.92
2022-09-18T07:21:24.861Z,0.85
2022-09-18T07:23:52.905Z,1.10
2022-09-18T07:26:21.346Z,2.53
2022-09-18T07:28:49.378Z,1.85
2022-09-18T07:31:21.414Z,1.33
2022-09-18T07:33:54.817Z,1.75
2022-09-18T07:36:26.997Z,0.98
2022-09-18T07:38:55.011Z,1.40
2022-09-18T07:41:25.905Z,1.23
2022-09-18T07:43:53.618Z,1.35
2022-09-18T07:46:21.258Z,1.05
2022-09-18T07:48:52.084Z,0.60
2022-09-18T07:51:26.411Z,1.10
2022-09-18T07:53:55.925Z,1.35
2022-09-18T07:56:46.898Z,1.85
2022-09-18T07:59:17.342Z,1.83
2022-09-18T08:01:46.020Z,5.35
2022-09-18T08:04:15.256Z,2.78
2022-09-18T08:07:04.411Z,3.33
2022-09-18T08:09:50.409Z,2.28
2022-09-18T08:12:43.841Z,3.92
2022-09-18T08:15:42.086Z,2.15
2022-09-18T08:18:44.933Z,2.47
2022-09-18T08:21:41.734Z,3.28
2022-09-18T08:24:11.987Z,0.97
2022-09-18T08:26:39.486Z,1.83
2022-09-18T08:29:07.578Z,2.63
2022-09-18T08:31:36.958Z,2.60
2022-09-18T08:34:07.549Z,4.05
2022-09-18T08:36:35.452Z,5.22
2022-09-18T08:39:10.477Z,2.90
2022-09-18T08:41:43.905Z,3.78
2022-09-18T08:44:24.511Z,3.33
2022-09-18T08:47:16.772Z,3.53
2022-09-18T08:50:04.824Z,2.88
2022-09-18T08:52:35.007Z,1.92
2022-09-18T08:55:31.244Z,2.40
2022-09-18T08:58:07.953Z,3.42
2022-09-18T09:00:45.292Z,4.07
2022-09-18T09:03:40.741Z,4.55
2022-09-18T09:06:26.337Z,2.60
2022-09-18T09:09:50.987Z,4.20
2022-09-18T09:12:33.062Z,4.40
2022-09-18T09:15:25.580Z,3.85
2022-09-18T09:18:05.674Z,3.60
2022-09-18T09:20:42.157Z,5.22
2022-09-18T09:23:38.719Z,11.00
2022-09-18T09:26:19.517Z,4.95
2022-09-18T09:29:21.117Z,3.17
2022-09-18T09:32:18.485Z,2.40
2022-09-18T09:35:16.981Z,2.55
2022-09-18T09:38:06.820Z,3.60
2022-09-18T09:40:44.370Z,2.60
2022-09-18T09:43:17.465Z,2.95
2022-09-18T09:45:47.271Z,3.70
2022-09-18T09:48:38.370Z,2.28
2022-09-18T09:51:22.838Z,2.47
2022-09-18T09:53:53.329Z,2.83
2022-09-18T09:56:48.357Z,4.53
2022-09-18T09:59:46.278Z,9.68
2022-09-18T10:02:33.789Z,2.85
2022-09-18T10:05:11.134Z,8.88
2022-09-18T10:08:09.202Z,7.05
2022-09-18T10:10:58.051Z,6.53
2022-09-18T10:13:41.979Z,7.40
2022-09-18T10:16:27.556Z,5.13
2022-09-18T10:18:58.228Z,5.28
2022-09-18T10:21:29.357Z,4.55
2022-09-18T10:24:00.037Z,5.07
2022-09-18T10:27:06.677Z,3.05
2022-09-18T10:29:36.076Z,5.03
2022-09-18T10:32:07.357Z,3.10
2022-09-18T10:34:46.089Z,3.10
2022-09-18T10:37:40.780Z,6.28
2022-09-18T10:40:40.477Z,3.33
2022-09-18T10:43:19.102Z,3.85
2022-09-18T10:45:56.410Z,4.30
2022-09-18T10:48:36.686Z,4.13
2022-09-18T10:51:05.194Z,3.08
2022-09-18T10:53:39.149Z,2.72
2022-09-18T10:56:21.363Z,2.95
2022-09-18T10:58:52.171Z,4.65
2022-09-18T11:01:20.245Z,4.28
2022-09-18T11:04:02.174Z,4.18
2022-09-18T11:06:35.231Z,4.43
2022-09-18T11:09:16.746Z,3.33
2022-09-18T11:11:50.410Z,4.30
2022-09-18T11:14:29.563Z,2.65
2022-09-18T11:17:04.822Z,4.20
2022-09-18T11:19:39.225Z,2.90
2022-09-18T11:22:42.651Z,3.78
2022-09-18T11:25:24.873Z,4.00
2022-09-18T11:27:58.005Z,3.13
2022-09-18T11:30:29.513Z,4.63
2022-09-18T11:33:14.925Z,2.40
2022-09-18T11:35:48.778Z,3.47
2022-09-18T11:38:20.285Z,3.67
2022-09-18T11:40:54.525Z,3.22
2022-09-18T11:43:29.811Z,5.13
2022-09-18T11:46:35.801Z,3.63
2022-09-18T11:49:15.409Z,3.50
2022-09-18T11:51:59.368Z,4.28
2022-09-18T11:54:42.982Z,3.47
2022-09-18T11:57:42.173Z,2.33
2022-09-18T12:00:17.422Z,2.75
2022-09-18T12:03:07.117Z,2.83
2022-09-18T12:05:51.629Z,3.42
2022-09-18T12:08:38.245Z,3.60
2022-09-18T12:11:36.778Z,7.60
2022-09-18T12:14:12.965Z,13.55
2022-09-18T12:17:03.509Z,13.32
2022-09-18T12:19:48.282Z,20.10
2022-09-18T12:22:42.781Z,21.48
2022-09-18T12:25:15.404Z,28.65
2022-09-18T12:31:22.215Z,29.25
2022-09-18T12:34:01.613Z,25.85
2022-09-18T12:36:50.841Z,29.23
2022-09-18T12:39:28.564Z,35.83
2022-09-18T12:42:17.435Z,36.08
2022-09-18T12:44:56.899Z,42.00
2022-09-18T12:47:38.211Z,40.88
2022-09-18T12:50:26.587Z,43.63
2022-09-18T12:53:23.153Z,45.03
2022-09-18T12:56:09.923Z,41.05
2022-09-18T12:58:40.533Z,42.28
2022-09-18T13:01:26.555Z,47.97
2022-09-18T13:04:00.949Z,51.85
2022-09-18T13:06:40.608Z,49.55
2022-09-18T13:09:25.658Z,52.35
2022-09-18T13:12:09.838Z,48.63
2022-09-18T13:14:47.397Z,42.83
2022-09-18T13:17:21.190Z,45.15
2022-09-18T13:20:11.285Z,42.40
2022-09-18T13:22:40.396Z,41.72
2022-09-18T13:25:25.687Z,42.13
2022-09-18T13:27:54.892Z,38.33
2022-09-18T13:30:30.965Z,36.10
2022-09-18T13:33:00.021Z,31.67
2022-09-18T13:35:39.665Z,37.55
2022-09-18T13:38:14.895Z,38.95
2022-09-18T13:40:57.553Z,52.58
2022-09-18T13:43:28.075Z,69.45
2022-09-18T13:46:06.889Z,80.15
2022-09-18T13:48:44.653Z,76.80
2022-09-18T13:51:22.237Z,62.42
2022-09-18T13:54:12.445Z,61.83
2022-09-18T13:57:03.074Z,56.97
2022-09-18T13:59:59.363Z,54.58
2022-09-18T14:02:37.896Z,49.78
2022-09-18T14:05:10.412Z,42.88
2022-09-18T14:07:37.841Z,44.13
2022-09-18T14:10:20.560Z,45.15
2022-09-18T14:13:19.012Z,62.28
2022-09-18T14:15:55.902Z,49.40
2022-09-18T14:19:01.447Z,53.80
2022-09-18T14:21:34.445Z,50.65
2022-09-18T14:24:25.435Z,44.50
2022-09-18T14:27:00.028Z,51.70
2022-09-18T14:29:30.655Z,51.17
2022-09-18T14:32:00.093Z,58.10
2022-09-18T14:34:42.023Z,59.30
2022-09-18T14:37:35.199Z,61.53
2022-09-18T14:40:18.482Z,62.15
2022-09-18T14:42:46.193Z,64.20
2022-09-18T14:45:13.861Z,75.00
2022-09-18T14:47:44.345Z,72.97
2022-09-18T14:50:25.855Z,73.35
2022-09-18T14:52:54.160Z,69.45
2022-09-18T14:55:49.115Z,63.03
2022-09-18T14:58:20.688Z,63.47
2022-09-18T15:00:56.006Z,55.35
2022-09-18T15:03:30.734Z,54.45
2022-09-18T15:06:08.454Z,50.70
2022-09-18T15:08:37.673Z,51.65
2022-09-18T15:11:05.885Z,45.15
2022-09-18T15:13:37.908Z,46.80
2022-09-18T15:16:06.009Z,43.53
2022-09-18T15:18:41.952Z,44.90
2022-09-18T15:21:32.332Z,37.60
2022-09-18T15:26:33.091Z,34.67
2022-09-18T15:29:02.563Z,30.95
2022-09-18T15:31:32.215Z,29.15
2022-09-18T15:34:13.162Z,29.25
2022-09-18T15:36:41.363Z,29.52
2022-09-18T15:39:46.649Z,28.67
2022-09-18T15:42:37.252Z,26.35
2022-09-18T15:45:07.509Z,24.85
2022-09-18T15:47:37.995Z,19.90
2022-09-18T15:50:15.499Z,21.02
2022-09-18T15:52:52.194Z,17.75
2022-09-18T15:55:29.840Z,18.80
2022-09-18T15:58:05.407Z,22.48
2022-09-18T16:00:37.316Z,19.55
2022-09-18T16:03:17.956Z,18.10
2022-09-18T16:05:57.900Z,16.50
2022-09-18T16:08:29.871Z,14.20
2022-09-18T16:10:59.882Z,17.52
2022-09-18T16:13:30.473Z,14.87
2022-09-18T16:16:13.088Z,14.75
2022-09-18T16:18:52.580Z,14.98
2022-09-18T16:21:20.485Z,13.57
2022-09-18T16:23:53.705Z,13.55
2022-09-18T16:26:33.525Z,11.25
2022-09-18T16:29:04.879Z,12.13
2022-09-18T16:31:37.783Z,10.57
2022-09-18T16:34:22.257Z,11.90
2022-09-18T16:36:51.977Z,10.63
2022-09-18T16:39:21.618Z,8.98
2022-09-18T16:41:49.787Z,11.77
2022-09-18T16:44:18.422Z,11.15
2022-09-18T16:46:55.398Z,10.00
2022-09-18T16:49:33.298Z,9.68
2022-09-18T16:52:00.729Z,10.68
2022-09-18T16:54:28.810Z,10.68
2022-09-18T16:57:12.602Z,9.52
2022-09-18T16:59:42.897Z,9.30
2022-09-18T17:02:16.443Z,10.40
2022-09-18T17:04:44.382Z,9.77
2022-09-18T17:07:13.115Z,7.82
2022-09-18T17:09:43.549Z,8.68
2022-09-18T17:12:11.558Z,7.72
2022-09-18T17:14:41.667Z,7.95
2022-09-18T17:17:13.732Z,7.18
2022-09-18T17:19:41.623Z,7.18
2022-09-18T17:22:09.920Z,7.18
2022-09-18T17:24:39.561Z,5.78
2022-09-18T17:27:07.517Z,6.80
2022-09-18T17:29:35.635Z,8.27
2022-09-18T17:32:06.765Z,6.78
2022-09-18T17:34:34.835Z,6.93
2022-09-18T17:37:02.991Z,6.68
2022-09-18T17:39:30.931Z,6.95
2022-09-18T17:42:00.418Z,5.93
2022-09-18T17:44:29.274Z,5.65
2022-09-18T17:46:57.404Z,6.93
2022-09-18T17:49:26.264Z,6.22
2022-09-18T17:51:56.301Z,7.55
2022-09-18T17:54:24.202Z,6.70
2022-09-18T17:56:51.993Z,6.47
2022-09-18T18:01:51.514Z,5.90
2022-09-18T18:04:20.429Z,4.68
2022-09-18T18:06:50.234Z,4.82
2022-09-18T18:09:18.176Z,6.65
2022-09-18T18:11:48.486Z,5.35
2022-09-18T18:14:16.546Z,5.82
2022-09-18T18:16:44.239Z,4.93
2022-09-18T18:19:12.911Z,4.88
2022-09-18T18:21:42.691Z,4.30
2022-09-18T18:24:17.022Z,3.97
2022-09-18T18:26:48.307Z,3.92
2022-09-18T18:29:18.583Z,4.45
2022-09-18T18:31:48.434Z,5.20
2022-09-18T18:34:22.430Z,3.63
2022-09-18T18:36:50.627Z,3.72
2022-09-18T18:39:20.208Z,5.15
2022-09-18T18:41:49.001Z,4.80
2022-09-18T18:44:16.863Z,4.68
2022-09-18T18:46:44.491Z,5.03
2022-09-18T18:49:15.131Z,5.63
2022-09-18T18:51:52.593Z,4.95
2022-09-18T18:54:22.620Z,3.95
2022-09-18T18:56:51.775Z,3.97
2022-09-18T18:59:22.313Z,4.15
2022-09-18T19:01:50.096Z,4.22
2022-09-18T19:04:21.855Z,4.30
2022-09-18T19:06:49.667Z,5.13
2022-09-18T19:09:21.016Z,3.80
2022-09-18T19:11:50.305Z,3.85
2022-09-18T19:14:24.352Z,3.55
2022-09-18T19:16:53.662Z,5.20
2022-09-18T19:19:23.967Z,5.80
2022-09-18T19:21:52.929Z,4.50
2022-09-18T19:24:21.226Z,4.18
2022-09-18T19:26:49.124Z,6.43
2022-09-18T19:29:19.138Z,5.43
2022-09-18T19:31:47.768Z,3.88
2022-09-18T19:34:19.300Z,5.85
2022-09-18T19:36:49.207Z,5.63
2022-09-18T19:39:17.758Z,4.15
2022-09-18T19:41:55.696Z,4.88
2022-09-18T19:44:37.656Z,5.45
2022-09-18T19:47:14.036Z,6.28
2022-09-18T19:49:41.798Z,4.78
2022-09-18T19:52:24.352Z,6.25
2022-09-18T19:54:54.701Z,6.25
2022-09-18T19:57:23.902Z,4.67
2022-09-18T19:59:57.277Z,5.00
2022-09-18T20:02:27.082Z,5.07
2022-09-18T20:04:54.763Z,4.70
2022-09-18T20:07:22.450Z,3.58
2022-09-18T20:09:53.857Z,5.10
2022-09-18T20:12:21.331Z,5.43
2022-09-18T20:14:48.791Z,5.00
2022-09-18T20:17:16.227Z,2.75
2022-09-18T20:19:43.635Z,4.10
2022-09-18T20:22:11.047Z,4.25
2022-09-18T20:24:39.037Z,3.63
2022-09-18T20:27:06.634Z,4.05
2022-09-18T20:29:34.328Z,6.18
2022-09-18T20:32:03.002Z,4.70
2022-09-18T20:34:30.390Z,2.20
2022-09-18T20:36:58.065Z,4.13
2022-09-18T20:39:25.545Z,5.68
2022-09-18T20:41:52.986Z,3.60
2022-09-18T20:44:22.059Z,3.58
2022-09-18T20:46:50.527Z,5.22
2022-09-18T20:49:18.204Z,4.25
2022-09-18T20:51:46.189Z,3.45
2022-09-18T20:54:15.087Z,4.22
2022-09-18T20:56:44.528Z,3.20
2022-09-18T20:59:16.194Z,3.42
2022-09-18T21:01:45.283Z,3.88
2022-09-18T21:04:19.488Z,5.13
2022-09-18T21:06:55.352Z,2.90
2022-09-18T21:09:25.015Z,3.70
2022-09-18T21:11:53.079Z,3.10
2022-09-18T21:14:21.261Z,4.72
2022-09-18T21:16:49.156Z,3.38
2022-09-18T21:19:19.555Z,5.32
2022-09-18T21:21:48.419Z,5.40
2022-09-18T21:24:17.608Z,4.22
2022-09-18T21:26:50.260Z,5.47
2022-09-18T21:29:26.213Z,3.88
2022-09-18T21:31:56.505Z,4.63
2022-09-18T21:34:26.756Z,4.22
2022-09-18T21:36:57.831Z,3.58
2022-09-18T21:39:28.445Z,4.50
2022-09-18T21:41:58.020Z,5.25
2022-09-18T21:44:27.629Z,4.00
2022-09-18T21:47:00.421Z,3.72
2022-09-18T21:49:29.440Z,3.90
2022-09-18T21:52:01.553Z,3.92
2022-09-18T21:54:29.185Z,3.55
2022-09-18T21:56:57.909Z,2.80
2022-09-18T21:59:27.605Z,4.28
2022-09-18T22:01:55.557Z,3.63
2022-09-18T22:04:26.423Z,3.13
2022-09-18T22:06:56.367Z,3.35
2022-09-18T22:09:29.621Z,4.32
2022-09-18T22:11:57.785Z,3.42
2022-09-18T22:14:29.970Z,2.38
2022-09-18T22:16:58.815Z,2.40
2022-09-18T22:19:26.370Z,3.70
2022-09-18T22:21:53.983Z,2.30
2022-09-18T22:24:24.357Z,2.50
2022-09-18T22:26:59.329Z,2.83
2022-09-18T22:29:29.692Z,2.75
2022-09-18T22:31:58.308Z,4.15
2022-09-18T22:34:29.232Z,3.08
2022-09-18T22:36:58.425Z,3.40
2022-09-18T22:39:25.990Z,4.40
2022-09-18T22:41:54.006Z,2.38
2022-09-18T22:44:22.808Z,3.00
2022-09-18T22:46:54.737Z,2.80
2022-09-18T22:49:23.419Z,4.35
2022-09-18T22:51:51.836Z,3.83
2022-09-18T22:54:24.000Z,3.63
2022-09-18T22:56:52.741Z,3.75
2022-09-18T22:59:22.454Z,2.80
2022-09-18T23:01:56.607Z,3.30
2022-09-18T23:04:29.301Z,3.97
2022-09-18T23:06:57.740Z,2.08
2022-09-18T23:09:26.192Z,2.75
2022-09-18T23:11:53.957Z,2.55
2022-09-18T23:14:23.704Z,2.40
2022-09-18T23:16:51.687Z,2.65
2022-09-18T23:19:29.054Z,2.70
2022-09-18T23:21:57.243Z,3.30
2022-09-18T23:24:25.286Z,3.20
2022-09-18T23:26:54.204Z,3.08
2022-09-18T23:29:23.080Z,3.50
2022-09-18T23:31:59.089Z,3.30
2022-09-18T23:34:31.689Z,4.47
2022-09-18T23:36:59.827Z,2.88
2022-09-18T23:39:30.041Z,3.15
2022-09-18T23:41:59.450Z,4.13
2022-09-18T23:44:31.504Z,3.22
2022-09-18T23:47:00.181Z,3.28
2022-09-18T23:49:28.865Z,2.50
2022-09-18T23:51:57.134Z,2.63
2022-09-18T23:54:27.623Z,4.68
2022-09-18T23:56:55.264Z,2.35
2022-09-18T23:59:24.501Z,2.92
